CheckWX is a tool to help pilots better visualize weather data.  It is not intended as a substitute for an official pre-flight weather briefing.

01:07:44 UTC

EDDW METAR
Bremen Airport
Bremen, Germany
Current

18 mins ago

EDDW 240050Z 12002KT CAVOK 01/M02 Q1038
Observed
Feb-24 @ 00:50 UTC
Wind
  • 120° at 2 KTS
Visibility
10,000+ meters
Flight Rules
VFR
Cloud Levels
  • Clear skies
Temperature
C / 34°F
Dewpoint
-2°C / 28°F
Humidity
81%
Altimeter
30.65" Hg
Pressure
1037.91 hPa
Previous

48 mins ago

EDDW 240020Z 11002KT CAVOK 01/M02 Q1038
Observed
Feb-24 @ 00:20 UTC
Wind
  • 110° at 2 KTS
Visibility
10,000+ meters
Flight Rules
VFR
Cloud Levels
  • Clear skies
Temperature
C / 34°F
Dewpoint
-2°C / 28°F
Humidity
81%
Altimeter
30.65" Hg
Pressure
1037.91 hPa
Previous

1 hour ago

EDDW 232350Z 13004KT 110V170 CAVOK 02/M01 Q1038
Observed
Feb-23 @ 23:50 UTC
Wind
  • 130° at 4 KTS
Visibility
10,000+ meters
Flight Rules
VFR
Cloud Levels
  • Clear skies
Temperature
C / 36°F
Dewpoint
-1°C / 30°F
Humidity
81%
Altimeter
30.65" Hg
Pressure
1037.91 hPa